Manton, California
Current Conditions -  °F | °C
As of 2:53 PM on Monday 22 Dec 2014 (Local Time) from KRDD Reporting Station
Clear Clear  
Wind Chill: 68°   Ceiling: Unl
Heat Index: 68°   Visibility: 10mi
Dew Point: 56°   Wind: 6mph
Humidity: 65%   Direction: 310°NW
Pressure: 30.18"   Gusts: NA
Location:  40.43°N, 121.87°W
Report Text: KRDD 222253Z 31005KT 10SM CLR 20/13 A3018 RMK AO2 SLP218 T02000133
Loading
Personal Weather Stations






























Interactive Weather Map New forecast layout! Learn more

10-Day Weather Forecast

Advertisements
Track Severe Weather on mobile